createdAt,value
2023-01-17T00:03:15.673Z,12.80
2023-01-17T00:07:43.279Z,10.65
2023-01-17T00:11:47.864Z,16.50
2023-01-17T00:15:52.491Z,10.90
2023-01-17T00:20:13.510Z,12.43
2023-01-17T00:24:33.660Z,12.77
2023-01-17T00:28:37.104Z,12.77
2023-01-17T00:32:39.765Z,13.00
2023-01-17T00:36:41.593Z,12.13
2023-01-17T00:40:46.529Z,11.48
2023-01-17T00:45:06.481Z,11.30
2023-01-17T00:49:28.721Z,14.55
2023-01-17T00:53:49.413Z,12.35
2023-01-17T00:58:09.606Z,11.27
2023-01-17T01:02:30.376Z,8.65
2023-01-17T01:06:51.828Z,15.35
2023-01-17T01:11:12.498Z,15.27
2023-01-17T01:15:32.765Z,14.68
2023-01-17T01:19:53.378Z,12.25
2023-01-17T01:24:14.634Z,13.32
2023-01-17T01:28:35.234Z,14.18
2023-01-17T01:32:55.965Z,17.73
2023-01-17T01:36:59.175Z,15.95
2023-01-17T01:41:03.958Z,13.52
2023-01-17T01:45:18.437Z,11.73
2023-01-17T01:49:25.335Z,15.43
2023-01-17T01:53:30.318Z,7.95
2023-01-17T01:57:39.736Z,14.38
2023-01-17T02:01:43.003Z,16.20
2023-01-17T02:05:48.873Z,11.65
2023-01-17T02:09:55.614Z,14.60
2023-01-17T02:14:00.482Z,16.65
2023-01-17T02:18:15.380Z,14.20
2023-01-17T02:22:58.373Z,15.55
2023-01-17T02:27:17.851Z,16.73
2023-01-17T02:31:28.408Z,17.42
2023-01-17T02:35:40.057Z,17.80
2023-01-17T02:39:50.403Z,14.13
2023-01-17T02:43:55.314Z,14.68
2023-01-17T02:48:00.169Z,19.98
2023-01-17T02:52:22.831Z,15.40
2023-01-17T02:56:40.019Z,10.65
2023-01-17T03:00:59.388Z,14.95
2023-01-17T03:05:09.421Z,16.33
2023-01-17T03:13:15.929Z,17.88
2023-01-17T03:17:19.302Z,16.02
2023-01-17T03:21:24.242Z,14.38
2023-01-17T03:25:27.497Z,17.27
2023-01-17T03:29:30.809Z,17.92
2023-01-17T03:33:33.987Z,15.43
2023-01-17T03:37:38.528Z,16.55
2023-01-17T03:41:41.619Z,19.23
2023-01-17T03:45:45.145Z,17.17
2023-01-17T03:49:47.996Z,10.90
2023-01-17T03:53:53.025Z,15.68
2023-01-17T03:57:56.593Z,17.00
2023-01-17T04:02:00.709Z,12.70
2023-01-17T04:06:03.934Z,14.60
2023-01-17T04:10:09.457Z,19.48
2023-01-17T04:14:12.471Z,17.48
2023-01-17T04:18:16.071Z,13.63
2023-01-17T04:22:19.228Z,17.20
2023-01-17T04:26:23.969Z,17.95
2023-01-17T04:30:27.776Z,9.13
2023-01-17T04:34:32.851Z,15.68
2023-01-17T04:38:36.635Z,19.45
2023-01-17T04:42:41.236Z,12.20
2023-01-17T04:46:45.066Z,15.10
2023-01-17T04:54:50.891Z,15.43
2023-01-17T04:58:57.770Z,14.02
2023-01-17T05:03:01.193Z,14.50
2023-01-17T05:11:08.066Z,13.90
2023-01-17T05:15:12.938Z,11.73
2023-01-17T05:19:17.000Z,18.58
2023-01-17T05:23:20.241Z,16.08
2023-01-17T05:27:23.415Z,16.70
2023-01-17T05:31:27.954Z,12.82
2023-01-17T05:35:34.098Z,14.13
2023-01-17T05:39:37.247Z,15.95
2023-01-17T05:43:40.399Z,13.00
2023-01-17T05:47:45.167Z,13.57
2023-01-17T05:51:48.208Z,14.85
2023-01-17T05:55:51.391Z,13.25
2023-01-17T05:59:54.392Z,10.68
2023-01-17T06:03:58.775Z,14.85
2023-01-17T06:08:04.974Z,12.02
2023-01-17T06:12:07.967Z,11.18
2023-01-17T06:16:11.072Z,11.88
2023-01-17T06:20:15.528Z,11.88
2023-01-17T06:24:18.695Z,14.25
2023-01-17T06:28:24.054Z,11.80
2023-01-17T06:32:27.299Z,14.70
2023-01-17T06:36:32.626Z,11.35
2023-01-17T06:40:35.868Z,14.18
2023-01-17T06:44:38.979Z,12.30
2023-01-17T06:48:43.829Z,11.45
2023-01-17T06:52:56.568Z,12.20
2023-01-17T06:57:00.176Z,14.52
2023-01-17T07:01:08.324Z,15.15
2023-01-17T07:05:13.880Z,11.20
2023-01-17T07:09:18.565Z,8.40
2023-01-17T07:13:22.814Z,11.30
2023-01-17T07:17:25.751Z,11.38
2023-01-17T07:21:29.116Z,12.57
2023-01-17T07:25:33.825Z,9.60
2023-01-17T07:29:36.836Z,10.02
2023-01-17T07:33:39.593Z,11.77
2023-01-17T07:37:49.126Z,15.07
2023-01-17T07:41:53.701Z,12.57
2023-01-17T07:45:56.763Z,13.23
2023-01-17T07:50:01.767Z,13.82
2023-01-17T07:54:04.897Z,12.57
2023-01-17T07:58:11.471Z,13.25
2023-01-17T08:02:19.105Z,12.27
2023-01-17T08:06:24.699Z,11.45
2023-01-17T08:10:27.582Z,10.10
2023-01-17T08:14:32.302Z,12.13
2023-01-17T08:18:35.590Z,11.23
2023-01-17T08:22:38.474Z,8.65
2023-01-17T08:26:41.846Z,12.05
2023-01-17T08:34:48.962Z,12.43
2023-01-17T08:38:53.027Z,11.48
2023-01-17T08:42:56.404Z,11.10
2023-01-17T08:51:04.620Z,6.07
2023-01-17T08:55:10.508Z,11.27
2023-01-17T08:59:13.737Z,13.77
2023-01-17T09:03:18.368Z,12.27
2023-01-17T09:07:22.398Z,14.38
2023-01-17T09:11:25.785Z,11.80
2023-01-17T09:15:29.204Z,10.80
2023-01-17T09:19:33.490Z,9.50
2023-01-17T09:23:37.739Z,10.13
2023-01-17T09:27:41.177Z,9.57
2023-01-17T09:31:44.160Z,7.18
2023-01-17T09:35:48.649Z,11.00
2023-01-17T09:39:51.772Z,10.45
2023-01-17T09:44:00.881Z,7.97
2023-01-17T09:48:14.208Z,10.68
2023-01-17T09:52:24.072Z,9.95
2023-01-17T09:56:33.006Z,8.10
2023-01-17T10:00:51.993Z,9.45
2023-01-17T10:05:13.413Z,10.10
2023-01-17T10:09:53.735Z,8.55
2023-01-17T10:14:04.731Z,12.68
2023-01-17T10:18:33.833Z,9.13
2023-01-17T10:22:52.183Z,10.80
2023-01-17T10:26:58.913Z,8.32
2023-01-17T10:31:05.640Z,12.30
2023-01-17T10:35:21.724Z,11.23
2023-01-17T10:39:26.223Z,11.52
2023-01-17T10:43:41.714Z,12.68
2023-01-17T10:47:49.925Z,12.10
2023-01-17T10:52:17.436Z,14.93
2023-01-17T10:56:27.405Z,12.30
2023-01-17T11:00:47.814Z,8.95
2023-01-17T11:04:54.799Z,10.35
2023-01-17T11:09:00.252Z,10.85
2023-01-17T11:13:05.571Z,8.73
2023-01-17T11:17:12.549Z,9.75
2023-01-17T11:21:21.001Z,8.90
2023-01-17T11:25:34.115Z,10.05
2023-01-17T11:29:39.960Z,9.32
2023-01-17T11:33:53.990Z,10.73
2023-01-17T11:38:06.708Z,10.05
2023-01-17T11:42:34.346Z,11.40
2023-01-17T11:46:39.219Z,11.82
2023-01-17T11:50:48.696Z,13.25
2023-01-17T11:54:52.731Z,11.95
2023-01-17T11:59:15.360Z,9.95
2023-01-17T12:03:32.870Z,9.52
2023-01-17T12:07:46.110Z,11.10
2023-01-17T12:12:12.099Z,11.32
2023-01-17T12:16:33.133Z,10.93
2023-01-17T12:20:49.185Z,10.85
2023-01-17T12:25:15.138Z,12.18
2023-01-17T12:29:49.964Z,13.05
2023-01-17T12:33:58.667Z,14.05
2023-01-17T12:38:07.622Z,13.57
2023-01-17T12:42:19.847Z,7.40
2023-01-17T12:46:28.823Z,10.27
2023-01-17T12:50:37.748Z,12.90
2023-01-17T12:54:44.352Z,11.18
2023-01-17T12:58:53.361Z,10.38
2023-01-17T13:03:00.807Z,8.85
2023-01-17T13:07:11.453Z,10.65
2023-01-17T13:11:23.492Z,12.15
2023-01-17T13:15:32.396Z,14.27
2023-01-17T13:19:46.889Z,12.63
2023-01-17T13:24:12.454Z,12.10
2023-01-17T13:28:24.010Z,9.75
2023-01-17T13:32:45.129Z,11.75
2023-01-17T13:37:01.860Z,9.90
2023-01-17T13:41:17.463Z,11.00
2023-01-17T13:45:23.035Z,12.15
2023-01-17T13:49:37.058Z,10.25
2023-01-17T13:54:00.322Z,11.57
2023-01-17T13:58:03.447Z,10.48
2023-01-17T14:02:37.552Z,12.32
2023-01-17T14:06:45.613Z,10.60
2023-01-17T14:10:50.661Z,11.60
2023-01-17T14:14:57.153Z,8.23
2023-01-17T14:19:01.854Z,15.57
2023-01-17T14:23:30.653Z,13.05
2023-01-17T14:27:36.989Z,12.18
2023-01-17T14:31:42.034Z,14.75
2023-01-17T14:35:52.844Z,15.82
2023-01-17T14:39:56.764Z,12.95
2023-01-17T14:44:04.137Z,14.18
2023-01-17T14:48:08.911Z,14.77
2023-01-17T14:52:17.684Z,14.57
2023-01-17T14:56:21.870Z,15.07
2023-01-17T15:00:29.459Z,14.45
2023-01-17T15:04:39.914Z,14.75
2023-01-17T15:08:43.566Z,20.35
2023-01-17T15:12:48.021Z,36.65
2023-01-17T15:16:52.302Z,17.65
2023-01-17T15:21:00.358Z,30.95
2023-01-17T15:25:04.475Z,21.10
2023-01-17T15:29:15.998Z,18.58
2023-01-17T15:33:21.318Z,26.30
2023-01-17T15:37:32.843Z,20.33
2023-01-17T15:41:39.457Z,17.55
2023-01-17T15:45:57.169Z,14.52
2023-01-17T15:50:02.966Z,21.80
2023-01-17T15:54:41.898Z,17.85
2023-01-17T15:58:45.294Z,20.73
2023-01-17T16:02:55.452Z,21.05
2023-01-17T16:11:14.497Z,19.60
2023-01-17T16:15:18.570Z,21.08
2023-01-17T16:19:23.385Z,23.10
2023-01-17T16:23:26.646Z,21.77
2023-01-17T16:27:32.514Z,20.13
2023-01-17T16:31:39.051Z,20.63
2023-01-17T16:35:44.149Z,22.30
2023-01-17T16:39:47.287Z,19.13
2023-01-17T16:43:59.477Z,23.23
2023-01-17T16:48:06.874Z,19.67
2023-01-17T16:52:12.110Z,19.35
2023-01-17T16:56:18.396Z,24.23
2023-01-17T17:00:22.916Z,26.67
2023-01-17T17:04:26.034Z,27.33
2023-01-17T17:08:30.966Z,23.38
2023-01-17T17:12:34.452Z,32.88
2023-01-17T17:16:39.245Z,30.08
2023-01-17T17:20:42.870Z,28.25
2023-01-17T17:24:47.501Z,25.58
2023-01-17T17:28:53.183Z,32.33
2023-01-17T17:32:56.190Z,27.88
2023-01-17T17:36:59.343Z,26.13
2023-01-17T17:41:11.099Z,27.45
2023-01-17T17:45:14.488Z,28.55
2023-01-17T17:49:18.262Z,25.77
2023-01-17T17:53:26.335Z,26.02
2023-01-17T17:57:33.482Z,26.30
2023-01-17T18:01:38.441Z,30.50
2023-01-17T18:05:41.899Z,29.58
2023-01-17T18:09:45.436Z,28.58
2023-01-17T18:13:51.597Z,33.10
2023-01-17T18:17:55.728Z,27.70
2023-01-17T18:22:00.047Z,31.02
2023-01-17T18:26:03.279Z,29.13
2023-01-17T18:30:08.912Z,29.75
2023-01-17T18:34:15.482Z,28.52
2023-01-17T18:38:18.953Z,33.75
2023-01-17T18:42:23.441Z,33.22
2023-01-17T18:46:31.883Z,55.47
2023-01-17T18:50:34.655Z,37.45
2023-01-17T18:54:38.072Z,144.60
2023-01-17T18:58:43.367Z,42.92
2023-01-17T19:02:50.211Z,50.53
2023-01-17T19:06:57.274Z,43.88
2023-01-17T19:11:01.096Z,38.28
2023-01-17T19:15:09.506Z,39.50
2023-01-17T19:19:15.968Z,41.83
2023-01-17T19:23:19.055Z,40.58
2023-01-17T19:27:22.249Z,45.15
2023-01-17T19:31:27.318Z,41.40
2023-01-17T19:35:32.114Z,50.38
2023-01-17T19:39:35.666Z,47.17
2023-01-17T19:43:38.536Z,43.30
2023-01-17T19:47:41.977Z,44.38
2023-01-17T19:51:46.879Z,48.45
2023-01-17T19:55:50.041Z,47.70
2023-01-17T19:59:52.710Z,47.40
2023-01-17T20:03:57.740Z,52.03
2023-01-17T20:08:02.287Z,48.63
2023-01-17T20:12:05.510Z,40.85
2023-01-17T20:16:10.593Z,43.08
2023-01-17T20:20:16.375Z,43.38
2023-01-17T20:24:20.742Z,44.10
2023-01-17T20:28:23.827Z,42.38
2023-01-17T20:32:26.845Z,40.53
2023-01-17T20:36:31.841Z,40.33
2023-01-17T20:44:40.119Z,35.22
2023-01-17T20:48:47.658Z,35.25
2023-01-17T20:52:50.643Z,45.22
2023-01-17T20:56:55.739Z,42.72
2023-01-17T21:00:59.840Z,40.50
2023-01-17T21:05:03.992Z,40.28
2023-01-17T21:09:09.096Z,45.08
2023-01-17T21:13:13.584Z,40.78
2023-01-17T21:17:17.569Z,47.28
2023-01-17T21:21:23.353Z,39.58
2023-01-17T21:25:26.397Z,42.85
2023-01-17T21:29:32.864Z,41.20
2023-01-17T21:33:36.323Z,41.38
2023-01-17T21:37:41.315Z,40.28
2023-01-17T21:41:48.040Z,43.40
2023-01-17T21:45:55.142Z,40.17
2023-01-17T21:50:01.189Z,51.28
2023-01-17T21:54:04.297Z,46.38
2023-01-17T21:58:31.308Z,45.15
2023-01-17T22:02:36.119Z,42.92
2023-01-17T22:06:41.019Z,47.33
2023-01-17T22:10:48.077Z,51.08
2023-01-17T22:14:52.075Z,43.85
2023-01-17T22:18:56.527Z,42.85
2023-01-17T22:22:59.778Z,44.53
2023-01-17T22:27:03.195Z,60.78
2023-01-17T22:31:13.160Z,57.78
2023-01-17T22:35:18.438Z,45.10
2023-01-17T22:39:26.325Z,55.65
2023-01-17T22:43:29.594Z,49.50
2023-01-17T22:47:33.312Z,57.88
2023-01-17T22:55:41.585Z,37.60
2023-01-17T22:59:44.904Z,48.50
2023-01-17T23:03:52.497Z,49.95
2023-01-17T23:07:57.312Z,52.15
2023-01-17T23:12:00.480Z,51.78
2023-01-17T23:16:24.005Z,46.40
2023-01-17T23:20:26.781Z,52.40
2023-01-17T23:24:31.464Z,47.10
2023-01-17T23:28:34.239Z,49.08
2023-01-17T23:32:37.746Z,50.92
2023-01-17T23:36:40.686Z,40.85
2023-01-17T23:41:07.250Z,49.03
2023-01-17T23:45:11.491Z,45.97
2023-01-17T23:49:14.699Z,46.53
2023-01-17T23:53:23.419Z,51.97
2023-01-17T23:57:28.018Z,50.97
